• Join FlightAware (Why Join?)
  • Login
  • US Flag 
12:35PM EDT


 

Airport Tracker/Info


-or-


 

Live Flight TrackerFlight Track Log ✈ EJA102 ✈ 27-Jun-2013 ✈ KTVC - KTEB

Flight Track Log - Related Links

Times and Time Zones

All times are in EDT time to prevent confusion due to time zone crossing. See the EJA102 flight status page for this flight to view local times or setup timezone preferences in your user account.

Time Position Orientation Groundspeed Altitude Reporting Facility
EDT Latitude Longitude Course Direction KTS MPH feet Rate Location/Type
04:26PM 44.7867 -85.5894 North 170 196 2,700  Level Minneapolis Center
04:27PM 44.8683 -85.5864 North 246 283 4,500 2,400 Climbing Minneapolis Center
04:29PM 44.9406 -85.5897 358° North 259 298 7,700 2,700 Climbing Minneapolis Center
04:30PM 45.0108 -85.5733 North 268 308 10,200 2,340 Climbing Minneapolis Center
04:31PM 45.0672 -85.4919 46° Northeast 285 328 12,600 2,280 Climbing Minneapolis Center
04:32PM 45.1272 -85.4047 46° Northeast 297 342 15,000 2,400 Climbing Minneapolis Center
04:33PM 45.2033 -85.2950 45° Northeast 319 367 17,600 2,100 Climbing Minneapolis Center
04:34PM 45.2689 -85.2017 45° Northeast 330 380 19,800 1,680 Climbing Minneapolis Center
04:35PM 45.3514 -85.0825 45° Northeast 348 400 21,500 1,320 Climbing Minneapolis Center
04:36PM 45.4083 -84.9556 57° Northeast 373 429 22,600 1,200 Climbing Minneapolis Center
04:37PM 45.4308 -84.8014 78° East 390 449 24,000 1,380 Climbing Minneapolis Center
04:38PM 45.4325 -84.6403 89° East 396 456 25,500 1,560 Climbing Minneapolis Center
04:39PM 45.4136 -84.4525 98° East 396 456 27,300 1,320 Climbing Minneapolis Center
04:40PM 45.3867 -84.2928 103° East 401 461 28,300 960 Climbing Minneapolis Center
04:41PM 45.3600 -84.1278 103° East 413 475 29,300 840 Climbing Minneapolis Center
04:42PM 45.3347 -83.9622 102° East 422 486 30,100 660 Climbing Minneapolis Center
04:43PM 45.3086 -83.7947 102° East 428 493 30,700 840 Climbing Minneapolis Center
04:44PM 45.2803 -83.6294 104° East 430 495 31,900 1,200 Climbing Minneapolis Center
04:45PM 45.2486 -83.4369 103° East 425 489 33,300 1,140 Climbing Minneapolis Center
04:46PM 45.2231 -83.2789 103° East 419 482 34,300 900 Climbing Minneapolis Center
04:47PM 45.1972 -83.1228 103° East 414 476 35,200 900 Climbing Minneapolis Center
04:48PM 45.1722 -82.9703 103° East 408 470 36,200 660 Climbing Minneapolis Center
04:49PM 45.1461 -82.8181 104° East 402 463 36,600 420 Climbing Minneapolis Center
04:50PM 45.1197 -82.6653 104° East 401 461 37,100 540 Climbing Minneapolis Center
04:52PM 45.0667 -82.4667 111° Southeast 410 472 37,800 480 Climbing Toronto Center
04:53PM 45.0333 -82.3000 106° East 400 460 38,200 300 Climbing Toronto Center
04:54PM 45.0167 -82.1500 99° East 410 472 38,400 180 Climbing Toronto Center
04:55PM 44.9833 -81.9833 106° East 420 483 38,600 180 Climbing Toronto Center
04:56PM 44.9667 -81.8167 98° East 430 495 38,800 180 Climbing Toronto Center
04:57PM 44.9333 -81.6500 106° East 430 495 39,000 60 Climbing Toronto Center
04:58PM 44.9000 -81.4667 104° East 440 506 39,000  Level Toronto Center
04:59PM 44.8667 -81.3000 106° East 450 518 39,000  Level Toronto Center
05:00PM 44.8333 -81.1333 106° East 460 529 39,000  Level Toronto Center
05:01PM 44.8000 -80.9667 106° East 460 529 39,000  Level Toronto Center
05:02PM 44.7833 -80.8000 98° East 460 529 39,000  Level Toronto Center
05:03PM 44.7333 -80.6167 111° Southeast 460 529 39,000  Level Toronto Center
05:04PM 44.7000 -80.4500 106° East 460 529 39,000  Level Toronto Center
05:05PM 44.6667 -80.2833 106° East 460 529 39,000  Level Toronto Center
05:06PM 44.6333 -80.1000 104° East 460 529 39,000  Level Toronto Center
05:07PM 44.6000 -79.9333 106° East 460 529 39,000  Level Toronto Center
05:08PM 44.5667 -79.7500 104° East 460 529 39,000  Level Toronto Center
05:09PM 44.5500 -79.5833 98° East 460 529 39,000  Level Toronto Center
05:10PM 44.5167 -79.4000 104° East 450 518 39,000  Level Toronto Center
05:11PM 44.4833 -79.2333 106° East 450 518 39,000  Level Toronto Center
05:12PM 44.4667 -79.0667 98° East 460 529 39,000  Level Toronto Center
05:13PM 44.4333 -78.8833 104° East 450 518 39,000  Level Toronto Center
05:14PM 44.4167 -78.7167 98° East 460 529 39,000  Level Toronto Center
05:15PM 44.3833 -78.5333 104° East 460 529 39,000  Level Toronto Center
05:16PM 44.3500 -78.3667 106° East 460 529 39,000  Level Toronto Center
05:17PM 44.3167 -78.2167 107° East 460 529 39,000  Level Toronto Center
05:18PM 44.2833 -78.0333 104° East 460 529 39,000  Level Toronto Center
05:19PM 44.2667 -77.8667 98° East 460 529 39,000  Level Toronto Center
05:20PM 44.2333 -77.6833 104° East 460 529 39,000 -60 Level Toronto Center
05:21PM 44.2167 -77.5000 97° East 460 529 38,900 -780 Descending Toronto Center
05:22PM 44.1667 -77.3000 109° East 470 541 37,500 -1,380 Descending Toronto Center
05:23PM 44.1333 -77.1500 107° East 460 529 36,200 -1,320 Descending Toronto Center
05:24PM 44.1167 -76.9833 98° East 460 529 34,900 -1,380 Descending Toronto Center
05:25PM 44.0833 -76.8000 104° East 460 529 33,500 -1,620 Descending Toronto Center
05:26PM 44.0333 -76.6333 113° Southeast 470 541 31,700 -1,800 Descending Toronto Center
05:26PM 44.0389 -76.5186 86° East 463 533 30,300 -1,800 Descending Boston Center
05:27PM 44.0075 -76.3461 104° East 463 533 28,500 -1,680 Descending Boston Center
05:28PM 43.9736 -76.1706 105° East 463 533 27,000 -780 Descending Boston Center
05:29PM 43.9267 -76.0061 112° Southeast 463 533 27,000  Level Boston Center
05:30PM 43.8519 -75.8636 126° Southeast 447 514 27,000  Level Boston Center
05:31PM 43.7808 -75.7272 126° Southeast 452 520 27,000  Level Boston Center
05:32PM 43.7078 -75.5853 125° Southeast 452 520 27,000 -420 Level Boston Center
05:34PM 43.6322 -75.4436 126° Southeast 452 520 26,200 -1,140 Descending Boston Center
05:35PM 43.5428 -75.2731 126° Southeast 452 520 24,600 -1,140 Descending Boston Center
05:36PM 43.4669 -75.1292 126° Southeast 463 533 24,000 -420 Descending Boston Center
05:37PM 43.3911 -74.9889 127° Southeast 463 533 23,700 -480 Descending Boston Center
05:38PM 43.3153 -74.8344 124° Southeast 463 533 23,000 -360 Descending Boston Center
05:39PM 43.2453 -74.6892 123° Southeast 457 526 23,000  Level Boston Center
05:40PM 43.1728 -74.5525 126° Southeast 450 518 23,000 -240 Level Boston Center
05:41PM 43.0678 -74.4750 152° Southeast 425 489 22,600 -1,320 Descending Boston Center
05:42PM 42.9581 -74.4403 167° South 410 472 20,400 -2,460 Descending Boston Center
05:43PM 42.8628 -74.4058 165° South 373 429 17,700 -2,580 Descending Boston Center
05:44PM 42.7528 -74.3714 167° South 373 429 15,300 -1,800 Descending Boston Center
05:45PM 42.6658 -74.3375 164° South 373 429 14,100 -660 Descending Boston Center
05:46PM 42.5539 -74.3003 166° South 373 429 14,000 -60 Descending Boston Center
05:47PM 42.4650 -74.2694 166° South 373 429 14,000  Level Boston Center
05:48PM 42.3531 -74.2297 165° South 373 429 14,000  Level Boston Center
05:49PM 42.2492 -74.1958 166° South 373 429 14,000  Level Boston Center
05:50PM 42.2283 -74.0550 101° East 280 322 14,100  Climbing Boston Center
05:51PM 42.3372 -74.0186 14° North 197 227 14,000 -60 Descending Boston Center
05:52PM 42.4456 -74.0297 356° North 279 321 14,000  Level Boston Center
05:54PM 42.4819 -74.1153 300° West 224 258 14,000  Level Boston Center
05:55PM 42.4372 -74.1703 222° Southwest 191 220 14,000  Level Boston Center
05:56PM 42.3683 -74.1739 182° South 213 245 14,100  Climbing Boston Center
05:57PM 42.3225 -74.1811 187° South 230 265 14,000 -60 Descending Boston Center
05:58PM 42.2367 -74.1928 186° South 243 280 14,000  Level Boston Center
05:59PM 42.2089 -74.2508 237° Southwest 208 239 14,000  Level Boston Center
06:00PM 42.2692 -74.2581 355° North 151 174 14,000  Level Boston Center
06:01PM 42.3386 -74.2097 27° Northeast 214 246 14,000  Level Boston Center
06:02PM 42.3714 -74.1122 66° East 240 276 14,100  Climbing Boston Center
06:03PM 42.3006 -74.1019 174° South 151 174 14,000 -60 Descending Boston Center
06:04PM 42.2414 -74.1733 222° Southwest 237 273 14,000  Level Boston Center
06:05PM 42.1631 -74.2356 210° Southwest 290 334 14,000 -300 Level Boston Center
06:06PM 42.0747 -74.3000 208° Southwest 307 353 13,400 -960 Descending Boston Center
06:07PM 42.0114 -74.3486 210° Southwest 307 353 12,100 -1,440 Descending Boston Center
06:08PM 41.9311 -74.4019 206° Southwest 302 348 10,600 -1,380 Descending Boston Center
06:09PM 41.8758 -74.4586 217° Southwest 291 335 9,400 -1,200 Descending Boston Center
06:10PM 41.8311 -74.5131 222° Southwest 277 319 8,300 -1,200 Descending Boston Center
06:11PM 41.7450 -74.5492 197° South 268 308 7,000 -660 Descending Boston Center
06:12PM 41.6636 -74.5631 187° South 278 320 7,000  Level Boston Center
06:13PM 41.5967 -74.5719 186° South 278 320 7,000 -540 Level Boston Center
06:14PM 41.5131 -74.5803 184° South 270 311 6,000 -540 Descending Boston Center
06:15PM 41.4483 -74.5864 184° South 270 311 6,000 -120 Level Boston Center
06:16PM 41.3500 -74.6000 186° South 256 295 5,800 -840 Descending New York TRACON
06:17PM 41.3000 -74.5500 143° Southeast 264 304 4,200 -900 Descending New York TRACON
06:18PM 41.2667 -74.4667 118° Southeast 255 293 4,000 -120 Descending New York TRACON
06:19PM 41.2167 -74.4000 135° Southeast 252 290 4,000 -480 Level New York TRACON
06:20PM 41.1833 -74.3167 118° Southeast 242 278 3,100 -480 Descending New York TRACON
06:21PM 41.1500 -74.2500 124° Southeast 200 230 3,000 -60 Descending New York TRACON
06:22PM 41.1167 -74.2000 131° Southeast 196 226 3,000  Level New York TRACON
06:23PM 41.0833 -74.1333 124° Southeast 203 234 3,000 -540 Level New York TRACON
06:24PM 41.0333 -74.0833 143° Southeast 241 277 2,000 -480 Descending New York TRACON
06:25PM 41.0000 -74.0500 143° Southeast 177 204 2,100 -120 Climbing New York TRACON
06:26PM 40.9500 -74.0500 180° South 179 206 1,800 -300 Descending New York TRACON